INFORMAÇÕES METEOROLÓGICAS
METAR FOR SBVH
ADDS - METARS form results

(1055 UTC 18 July 2019)
Data provider http://aviationweather.gov/metar/data/
 
Forecast for: SBVH (VILHENA , BR)
Text: TAF SBVH 180300Z 1806/1818 18005KT CAVOK TN19/1811Z TX31/1818Z RMK PFV
Forecast period: 0600 to 1800 UTC 18 July 2019
Forecast type: FROM: standard forecast or significant change
Winds: from the S (180 degrees) at 6 MPH (5 knots; 2.6 m/s)
Visibility: 6 or more miles 10+ km)
Ceiling: unknown
Clouds: missing
Weather: no significant weather forecast for this period

 MAPA DO AEROPORTO

 INFORMAÇÕES DA PISTA
Pista 3 Tamanho da pista 8530 ft Largura da pista 98 ft
Elevação da pista 0 ft Ranhura da pista 0 ft Proa da pista 0
Pista 21 Tamanho da pista 8530 ft Largura da pista 98 ft
Elevação da pista 0 ft Ranhura da pista 0 ft Proa da pista 0

 FREQUÊNCIAS DO AEROPORTO
Tipo AFIS Nome RDO Frequência 125.9 MHZ

 AUXÍLIOS DE NAVEGAÇÃO PRÓXIMOS AO AEROPORTO
Tipo VOR-DME Nome Vilhena Frequência 112100 KHZ
Tipo NDB Nome Vilhena Frequência 395 KHZ





Powered by Virtual Airlines Manager [v2.6.2]